createdAt,value
2022-10-17T00:01:07.622Z,76.83
2022-10-17T00:03:38.072Z,76.69
2022-10-17T00:06:09.018Z,76.59
2022-10-17T00:08:38.239Z,76.63
2022-10-17T00:11:09.057Z,76.67
2022-10-17T00:13:37.460Z,76.60
2022-10-17T00:16:07.533Z,76.74
2022-10-17T00:18:36.032Z,76.51
2022-10-17T00:21:04.904Z,76.68
2022-10-17T00:23:33.735Z,76.60
2022-10-17T00:26:05.151Z,76.54
2022-10-17T00:28:33.635Z,76.51
2022-10-17T00:31:04.242Z,76.59
2022-10-17T00:33:33.917Z,76.44
2022-10-17T00:36:07.685Z,76.46
2022-10-17T00:38:37.454Z,76.44
2022-10-17T00:41:08.887Z,76.38
2022-10-17T00:43:52.566Z,76.36
2022-10-17T00:46:22.606Z,76.41
2022-10-17T00:48:54.221Z,76.26
2022-10-17T00:51:29.355Z,76.28
2022-10-17T00:53:57.968Z,76.36
2022-10-17T00:56:27.308Z,76.30
2022-10-17T00:58:55.988Z,76.48
2022-10-17T01:01:24.482Z,76.43
2022-10-17T01:03:52.873Z,76.37
2022-10-17T01:06:21.431Z,76.44
2022-10-17T01:08:49.815Z,76.41
2022-10-17T01:11:28.592Z,76.39
2022-10-17T01:14:06.029Z,76.52
2022-10-17T01:16:44.283Z,76.39
2022-10-17T01:19:34.165Z,76.48
2022-10-17T01:22:09.566Z,76.50
2022-10-17T01:24:48.785Z,76.43
2022-10-17T01:27:48.343Z,76.54
2022-10-17T01:30:51.906Z,76.59
2022-10-17T01:33:32.414Z,76.47
2022-10-17T01:36:10.037Z,76.61
2022-10-17T01:38:46.531Z,76.65
2022-10-17T01:41:25.110Z,76.58
2022-10-17T01:43:59.498Z,76.53
2022-10-17T01:46:32.448Z,76.53
2022-10-17T01:49:02.499Z,76.48
2022-10-17T01:51:35.777Z,76.47
2022-10-17T01:54:11.180Z,76.55
2022-10-17T01:56:41.675Z,76.42
2022-10-17T01:59:16.334Z,76.37
2022-10-17T02:01:49.188Z,76.60
2022-10-17T02:04:18.660Z,76.56
2022-10-17T02:06:47.020Z,76.53
2022-10-17T02:09:19.417Z,76.52
2022-10-17T02:11:57.455Z,76.58
2022-10-17T02:14:39.441Z,76.66
2022-10-17T02:17:15.204Z,76.61
2022-10-17T02:19:55.185Z,76.62
2022-10-17T02:22:36.786Z,76.50
2022-10-17T02:25:13.694Z,76.56
2022-10-17T02:27:50.488Z,76.56
2022-10-17T02:30:28.070Z,76.55
2022-10-17T02:33:01.223Z,76.59
2022-10-17T02:35:35.463Z,76.50
2022-10-17T02:38:05.125Z,76.65
2022-10-17T02:40:34.398Z,76.58
2022-10-17T02:43:02.875Z,76.49
2022-10-17T02:45:35.351Z,76.57
2022-10-17T02:48:10.701Z,76.63
2022-10-17T02:50:48.825Z,76.49
2022-10-17T02:53:33.871Z,76.67
2022-10-17T02:56:08.614Z,76.53
2022-10-17T02:58:39.312Z,76.63
2022-10-17T03:01:08.108Z,76.60
2022-10-17T03:03:36.720Z,76.56
2022-10-17T03:06:05.496Z,76.58
2022-10-17T03:08:34.045Z,76.62
2022-10-17T03:11:02.620Z,76.59
2022-10-17T03:13:33.816Z,76.40
2022-10-17T03:16:05.637Z,76.49
2022-10-17T03:18:34.597Z,76.35
2022-10-17T03:21:04.350Z,76.29
2022-10-17T03:23:32.909Z,76.37
2022-10-17T03:26:04.210Z,76.47
2022-10-17T03:28:33.071Z,76.26
2022-10-17T03:31:07.198Z,76.43
2022-10-17T03:33:36.350Z,76.39
2022-10-17T03:36:09.401Z,76.20
2022-10-17T03:38:39.323Z,76.31
2022-10-17T03:41:08.452Z,76.18
2022-10-17T03:43:37.480Z,76.18
2022-10-17T03:46:08.682Z,76.29
2022-10-17T03:48:38.731Z,76.36
2022-10-17T03:51:09.968Z,76.39
2022-10-17T03:53:52.097Z,76.44
2022-10-17T03:56:22.739Z,76.23
2022-10-17T03:59:12.139Z,76.36
2022-10-17T04:01:40.926Z,76.28
2022-10-17T04:04:09.758Z,76.36
2022-10-17T04:06:39.303Z,76.20
2022-10-17T04:09:07.799Z,76.37
2022-10-17T04:11:48.941Z,76.29
2022-10-17T04:14:18.125Z,76.35
2022-10-17T04:16:48.007Z,76.27
2022-10-17T04:19:25.929Z,76.47
2022-10-17T04:21:57.899Z,76.46
2022-10-17T04:24:30.246Z,76.41
2022-10-17T04:27:11.283Z,76.38
2022-10-17T04:29:46.078Z,76.37
2022-10-17T04:32:25.759Z,76.27
2022-10-17T04:35:11.649Z,76.47
2022-10-17T04:37:44.870Z,76.45
2022-10-17T04:40:21.858Z,76.54
2022-10-17T04:42:54.007Z,76.36
2022-10-17T04:45:27.583Z,76.39
2022-10-17T04:48:05.600Z,76.39
2022-10-17T04:50:38.160Z,76.49
2022-10-17T04:53:32.063Z,76.50
2022-10-17T04:56:08.586Z,76.45
2022-10-17T04:58:41.110Z,76.46
2022-10-17T05:01:15.435Z,76.37
2022-10-17T05:03:48.327Z,76.42
2022-10-17T05:06:22.237Z,76.42
2022-10-17T05:09:08.652Z,76.37
2022-10-17T05:11:39.908Z,76.50
2022-10-17T05:14:12.349Z,76.43
2022-10-17T05:16:44.668Z,76.53
2022-10-17T05:19:17.272Z,76.66
2022-10-17T05:21:51.473Z,76.63
2022-10-17T05:24:23.594Z,76.56
2022-10-17T05:26:55.960Z,76.70
2022-10-17T05:29:28.171Z,76.69
2022-10-17T05:32:07.818Z,76.83
2022-10-17T05:34:40.118Z,76.71
2022-10-17T05:37:12.153Z,76.63
2022-10-17T05:39:46.823Z,76.80
2022-10-17T05:42:23.380Z,76.74
2022-10-17T05:44:55.525Z,76.73
2022-10-17T05:47:28.077Z,76.58
2022-10-17T05:50:00.537Z,76.57
2022-10-17T05:52:38.289Z,76.53
2022-10-17T05:55:14.590Z,76.32
2022-10-17T05:57:46.760Z,76.42
2022-10-17T06:00:21.949Z,76.33
2022-10-17T06:03:00.489Z,76.19
2022-10-17T06:05:32.621Z,76.14
2022-10-17T06:08:03.172Z,76.09
2022-10-17T06:10:39.487Z,75.15
2022-10-17T06:13:11.388Z,73.96
2022-10-17T06:15:47.890Z,73.22
2022-10-17T06:18:20.790Z,72.57
2022-10-17T06:20:53.184Z,71.64
2022-10-17T06:23:25.796Z,71.71
2022-10-17T06:26:06.830Z,70.33
2022-10-17T06:28:39.317Z,68.53
2022-10-17T06:31:12.769Z,68.38
2022-10-17T06:33:45.658Z,68.08
2022-10-17T06:36:19.336Z,67.85
2022-10-17T06:38:51.971Z,66.89
2022-10-17T06:41:33.760Z,65.69
2022-10-17T06:44:11.330Z,64.95
2022-10-17T06:47:03.001Z,64.60
2022-10-17T06:49:35.259Z,64.43
2022-10-17T06:52:39.508Z,63.18
2022-10-17T06:55:39.901Z,62.09
2022-10-17T06:58:27.867Z,61.15
2022-10-17T07:01:10.267Z,60.18
2022-10-17T07:03:43.705Z,59.78
2022-10-17T07:06:18.038Z,59.19
2022-10-17T07:08:50.498Z,59.01
2022-10-17T07:11:24.098Z,58.85
2022-10-17T07:13:57.156Z,57.75
2022-10-17T07:16:29.263Z,57.37
2022-10-17T07:19:17.629Z,56.51
2022-10-17T07:21:49.958Z,55.42
2022-10-17T07:24:21.853Z,55.57
2022-10-17T07:26:59.342Z,55.52
2022-10-17T07:29:31.599Z,54.53
2022-10-17T07:32:10.720Z,53.85
2022-10-17T07:34:42.563Z,54.65
2022-10-17T07:37:15.572Z,54.51
2022-10-17T07:39:53.192Z,53.74
2022-10-17T07:42:25.481Z,52.68
2022-10-17T07:44:58.798Z,51.99
2022-10-17T07:47:35.675Z,52.53
2022-10-17T07:50:10.104Z,52.90
2022-10-17T07:52:43.301Z,53.52
2022-10-17T07:55:15.165Z,53.11
2022-10-17T07:57:47.188Z,52.95
2022-10-17T08:00:19.425Z,52.37
2022-10-17T08:02:51.461Z,51.27
2022-10-17T08:05:23.505Z,51.88
2022-10-17T08:07:56.091Z,51.78
2022-10-17T08:10:29.720Z,51.49
2022-10-17T08:13:03.664Z,50.98
2022-10-17T08:15:35.627Z,50.39
2022-10-17T08:18:07.686Z,49.49
2022-10-17T08:20:39.610Z,49.90
2022-10-17T08:23:11.914Z,49.24
2022-10-17T08:25:43.745Z,48.87
2022-10-17T08:28:18.427Z,49.20
2022-10-17T08:30:50.430Z,48.95
2022-10-17T08:33:22.367Z,49.34
2022-10-17T08:35:54.208Z,48.89
2022-10-17T08:38:27.780Z,48.40
2022-10-17T08:41:01.754Z,48.82
2022-10-17T08:43:45.342Z,49.32
2022-10-17T08:46:17.755Z,48.96
2022-10-17T08:48:51.648Z,49.21
2022-10-17T08:51:28.706Z,49.65
2022-10-17T08:54:07.781Z,50.14
2022-10-17T08:56:48.799Z,49.97
2022-10-17T08:59:21.238Z,50.56
2022-10-17T09:01:56.800Z,50.40
2022-10-17T09:04:47.317Z,49.79
2022-10-17T09:07:27.449Z,49.91
2022-10-17T09:10:06.070Z,49.33
2022-10-17T09:12:45.162Z,49.01
2022-10-17T09:15:38.680Z,48.40
2022-10-17T09:18:18.695Z,48.47
2022-10-17T09:20:55.785Z,48.66
2022-10-17T09:23:31.312Z,47.75
2022-10-17T09:26:04.031Z,46.56
2022-10-17T09:28:38.847Z,46.33
2022-10-17T09:31:17.826Z,46.27
2022-10-17T09:33:54.629Z,46.57
2022-10-17T09:36:29.865Z,46.53
2022-10-17T09:39:03.575Z,46.54
2022-10-17T09:41:47.396Z,46.94
2022-10-17T09:44:23.276Z,47.17
2022-10-17T09:47:07.336Z,46.96
2022-10-17T09:49:41.168Z,47.12
2022-10-17T09:52:18.492Z,46.38
2022-10-17T09:54:52.630Z,46.25
2022-10-17T09:57:25.537Z,46.61
2022-10-17T10:00:02.900Z,46.47
2022-10-17T10:02:40.793Z,46.37
2022-10-17T10:05:21.882Z,46.90
2022-10-17T10:08:06.538Z,47.54
2022-10-17T10:10:39.223Z,46.10
2022-10-17T10:13:21.299Z,45.72
2022-10-17T10:15:54.146Z,46.11
2022-10-17T10:18:36.777Z,46.34
2022-10-17T10:21:12.907Z,46.66
2022-10-17T10:23:46.168Z,47.20
2022-10-17T10:26:27.456Z,47.51
2022-10-17T10:29:02.967Z,48.25
2022-10-17T10:31:40.946Z,48.70
2022-10-17T10:34:21.458Z,49.14
2022-10-17T10:36:58.793Z,49.00
2022-10-17T10:39:41.240Z,48.46
2022-10-17T10:42:28.581Z,48.86
2022-10-17T10:45:03.449Z,48.94
2022-10-17T10:47:35.587Z,49.53
2022-10-17T10:50:23.767Z,49.33
2022-10-17T10:53:14.639Z,49.37
2022-10-17T10:55:51.849Z,49.47
2022-10-17T10:58:42.146Z,49.40
2022-10-17T11:01:23.108Z,49.55
2022-10-17T11:04:06.269Z,49.33
2022-10-17T11:06:42.277Z,49.47
2022-10-17T11:09:24.279Z,49.38
2022-10-17T11:12:03.773Z,49.63
2022-10-17T11:14:45.308Z,49.24
2022-10-17T11:17:29.380Z,48.62
2022-10-17T11:20:15.180Z,48.72
2022-10-17T11:22:50.155Z,48.78
2022-10-17T11:25:32.818Z,48.91
2022-10-17T11:28:05.969Z,48.72
2022-10-17T11:33:30.165Z,48.62
2022-10-17T11:36:06.515Z,48.19
2022-10-17T11:38:46.834Z,48.13
2022-10-17T11:41:23.470Z,48.55
2022-10-17T11:43:59.290Z,48.47
2022-10-17T11:46:31.638Z,48.51
2022-10-17T11:49:16.199Z,48.33
2022-10-17T11:52:02.601Z,48.15
2022-10-17T11:54:41.083Z,47.91
2022-10-17T11:57:37.451Z,47.44
2022-10-17T12:00:26.165Z,46.80
2022-10-17T12:03:08.343Z,46.83
2022-10-17T12:05:46.529Z,46.69
2022-10-17T12:08:29.135Z,46.65
2022-10-17T12:11:08.533Z,46.93
2022-10-17T12:13:56.321Z,46.55
2022-10-17T12:16:45.995Z,46.60
2022-10-17T12:19:28.738Z,46.76
2022-10-17T12:22:04.443Z,47.19
2022-10-17T12:24:45.871Z,46.51
2022-10-17T12:27:36.997Z,46.25
2022-10-17T12:30:19.119Z,45.69
2022-10-17T12:33:06.082Z,46.20
2022-10-17T12:35:41.024Z,46.57
2022-10-17T12:38:23.518Z,46.46
2022-10-17T12:41:00.816Z,46.92
2022-10-17T12:43:53.302Z,46.63
2022-10-17T12:47:00.502Z,46.61
2022-10-17T12:49:46.547Z,46.98
2022-10-17T12:52:27.464Z,46.97
2022-10-17T12:55:14.089Z,46.65
2022-10-17T12:57:58.644Z,46.61
2022-10-17T13:00:38.309Z,47.20
2022-10-17T13:03:16.742Z,46.89
2022-10-17T13:05:52.633Z,46.59
2022-10-17T13:08:29.728Z,46.76
2022-10-17T13:11:02.926Z,46.73
2022-10-17T13:13:42.484Z,46.79
2022-10-17T13:16:30.667Z,46.87
2022-10-17T13:19:05.393Z,46.95
2022-10-17T13:21:37.604Z,46.99
2022-10-17T13:24:24.166Z,47.17
2022-10-17T13:26:56.210Z,47.37
2022-10-17T13:29:29.854Z,47.30
2022-10-17T13:32:04.995Z,47.55
2022-10-17T13:34:36.884Z,47.36
2022-10-17T13:37:12.501Z,47.21
2022-10-17T13:40:00.309Z,47.51
2022-10-17T13:42:42.667Z,47.61
2022-10-17T13:45:26.373Z,47.62
2022-10-17T13:47:59.319Z,47.28
2022-10-17T13:50:45.523Z,47.51
2022-10-17T13:53:26.777Z,47.33
2022-10-17T13:56:26.240Z,47.36
2022-10-17T13:58:58.128Z,47.41
2022-10-17T14:01:32.216Z,47.37
2022-10-17T14:04:10.412Z,47.79
2022-10-17T14:06:52.124Z,47.71
2022-10-17T14:09:28.073Z,47.82
2022-10-17T14:12:04.649Z,47.88
2022-10-17T14:14:57.972Z,47.66
2022-10-17T14:17:31.177Z,47.59
2022-10-17T14:20:48.220Z,47.56
2022-10-17T14:23:22.109Z,47.89
2022-10-17T14:26:07.710Z,48.08
2022-10-17T14:28:41.183Z,48.07
2022-10-17T14:31:21.272Z,48.08
2022-10-17T14:33:55.683Z,48.17
2022-10-17T14:36:42.095Z,48.41
2022-10-17T14:39:33.953Z,48.57
2022-10-17T14:42:22.449Z,48.63
2022-10-17T14:45:15.102Z,48.94
2022-10-17T14:48:01.901Z,49.20
2022-10-17T14:51:09.976Z,49.35
2022-10-17T14:54:06.913Z,49.62
2022-10-17T14:56:43.761Z,49.90
2022-10-17T14:59:30.154Z,50.00
2022-10-17T15:02:11.501Z,50.03
2022-10-17T15:04:43.656Z,50.09
2022-10-17T15:07:18.551Z,50.29
2022-10-17T15:09:52.347Z,50.26
2022-10-17T15:12:26.506Z,50.41
2022-10-17T15:14:58.345Z,50.55
2022-10-17T15:17:37.606Z,50.64
2022-10-17T15:20:15.909Z,50.75
2022-10-17T15:22:48.174Z,50.78
2022-10-17T15:25:20.203Z,50.95
2022-10-17T15:27:52.089Z,50.96
2022-10-17T15:30:27.414Z,51.12
2022-10-17T15:32:59.612Z,51.41
2022-10-17T15:35:31.955Z,51.58
2022-10-17T15:38:04.010Z,51.76
2022-10-17T15:40:36.075Z,51.86
2022-10-17T15:43:07.915Z,52.05
2022-10-17T15:45:38.181Z,52.18
2022-10-17T15:48:16.456Z,52.48
2022-10-17T15:50:48.347Z,52.60
2022-10-17T15:53:18.630Z,52.77
2022-10-17T15:55:51.175Z,52.78
2022-10-17T15:58:23.310Z,52.90
2022-10-17T16:00:55.594Z,53.06
2022-10-17T16:03:30.271Z,53.12
2022-10-17T16:06:02.425Z,53.44
2022-10-17T16:08:35.557Z,53.55
2022-10-17T16:11:07.689Z,53.66
2022-10-17T16:13:42.003Z,53.69
2022-10-17T16:16:14.344Z,53.84
2022-10-17T16:18:46.353Z,53.94
2022-10-17T16:21:20.430Z,53.98
2022-10-17T16:23:52.381Z,54.04
2022-10-17T16:26:24.325Z,54.12
2022-10-17T16:28:55.314Z,54.12
2022-10-17T16:31:29.541Z,54.21
2022-10-17T16:34:03.230Z,54.27
2022-10-17T16:36:35.720Z,54.27
2022-10-17T16:39:08.101Z,54.36
2022-10-17T16:41:40.853Z,54.49
2022-10-17T16:44:16.496Z,54.51
2022-10-17T16:46:48.586Z,54.68
2022-10-17T16:49:20.376Z,54.66
2022-10-17T16:51:52.223Z,54.93
2022-10-17T16:54:24.159Z,54.95
2022-10-17T16:56:54.603Z,55.16
2022-10-17T16:59:27.193Z,55.27
2022-10-17T17:01:58.997Z,55.21
2022-10-17T17:04:29.632Z,55.22
2022-10-17T17:07:01.509Z,55.27
2022-10-17T17:09:31.822Z,55.32
2022-10-17T17:12:03.902Z,55.32
2022-10-17T17:14:36.238Z,55.32
2022-10-17T17:17:15.348Z,55.47
2022-10-17T17:20:23.549Z,55.34
2022-10-17T17:23:06.020Z,55.49
2022-10-17T17:25:43.474Z,55.50
2022-10-17T17:28:18.739Z,55.70
2022-10-17T17:30:55.846Z,55.56
2022-10-17T17:33:42.791Z,55.61
2022-10-17T17:36:30.868Z,55.56
2022-10-17T17:39:12.445Z,55.58
2022-10-17T17:42:01.799Z,55.54
2022-10-17T17:44:45.126Z,55.66
2022-10-17T17:47:21.654Z,55.65
2022-10-17T17:50:08.937Z,55.53
2022-10-17T17:52:45.587Z,55.50
2022-10-17T17:55:41.857Z,55.57
2022-10-17T17:58:19.072Z,55.30
2022-10-17T18:00:53.355Z,55.46
2022-10-17T18:03:33.109Z,55.43
2022-10-17T18:06:18.555Z,55.35
2022-10-17T18:08:58.104Z,55.41
2022-10-17T18:11:36.593Z,55.53
2022-10-17T18:14:13.613Z,55.53
2022-10-17T18:16:46.894Z,55.60
2022-10-17T18:19:19.599Z,55.54
2022-10-17T18:21:52.391Z,55.40
2022-10-17T18:24:27.772Z,55.51
2022-10-17T18:27:04.038Z,55.55
2022-10-17T18:29:39.684Z,55.68
2022-10-17T18:32:12.590Z,55.72
2022-10-17T18:34:46.433Z,55.73
2022-10-17T18:37:19.681Z,55.75
2022-10-17T18:39:55.310Z,55.78
2022-10-17T18:42:27.570Z,55.86
2022-10-17T18:45:17.977Z,55.91
2022-10-17T18:47:53.830Z,56.01
2022-10-17T18:50:29.640Z,56.19
2022-10-17T18:53:03.178Z,56.22
2022-10-17T18:55:35.540Z,56.30
2022-10-17T18:58:10.038Z,56.47
2022-10-17T19:00:44.009Z,56.48
2022-10-17T19:03:15.873Z,56.46
2022-10-17T19:05:48.294Z,56.60
2022-10-17T19:08:21.280Z,56.54
2022-10-17T19:10:53.602Z,56.68
2022-10-17T19:13:26.942Z,56.66
2022-10-17T19:15:59.082Z,56.61
2022-10-17T19:18:31.225Z,56.68
2022-10-17T19:21:05.971Z,56.64
2022-10-17T19:23:39.053Z,56.64
2022-10-17T19:26:13.224Z,56.63
2022-10-17T19:28:45.993Z,56.84
2022-10-17T19:31:22.794Z,56.65
2022-10-17T19:33:59.433Z,56.80
2022-10-17T19:36:34.840Z,56.88
2022-10-17T19:39:12.796Z,56.97
2022-10-17T19:41:46.597Z,56.86
2022-10-17T19:44:19.177Z,57.02
2022-10-17T19:46:51.334Z,56.91
2022-10-17T19:49:23.244Z,57.01
2022-10-17T19:51:55.113Z,57.08
2022-10-17T19:54:28.036Z,57.10
2022-10-17T19:57:00.353Z,56.97
2022-10-17T19:59:35.118Z,56.96
2022-10-17T20:02:09.623Z,56.93
2022-10-17T20:04:49.756Z,57.04
2022-10-17T20:07:33.552Z,57.03
2022-10-17T20:10:06.123Z,57.03
2022-10-17T20:12:38.098Z,57.02
2022-10-17T20:15:11.209Z,57.01
2022-10-17T20:17:43.244Z,57.06
2022-10-17T20:20:15.429Z,57.10
2022-10-17T20:22:47.294Z,57.09
2022-10-17T20:25:19.815Z,57.17
2022-10-17T20:27:51.806Z,57.05
2022-10-17T20:30:23.992Z,56.89
2022-10-17T20:32:56.169Z,56.92
2022-10-17T20:35:28.170Z,56.91
2022-10-17T20:37:58.484Z,56.97
2022-10-17T20:40:35.031Z,57.00
2022-10-17T20:43:09.407Z,57.11
2022-10-17T20:45:51.259Z,57.01
2022-10-17T20:48:24.312Z,57.07
2022-10-17T20:50:56.652Z,56.98
2022-10-17T20:53:42.549Z,56.73
2022-10-17T20:56:20.585Z,56.93
2022-10-17T20:58:58.385Z,56.83
2022-10-17T21:01:31.227Z,56.86
2022-10-17T21:04:27.169Z,56.80
2022-10-17T21:06:55.681Z,56.67
2022-10-17T21:09:27.966Z,56.54
2022-10-17T21:14:38.795Z,56.53
2022-10-17T21:17:10.893Z,56.44
2022-10-17T21:19:42.849Z,56.55
2022-10-17T21:22:14.806Z,56.48
2022-10-17T21:24:46.773Z,56.40
2022-10-17T21:27:17.789Z,56.33
2022-10-17T21:29:50.079Z,56.27
2022-10-17T21:32:33.595Z,56.34
2022-10-17T21:35:14.168Z,56.34
2022-10-17T21:37:45.912Z,56.35
2022-10-17T21:40:18.551Z,56.39
2022-10-17T21:42:50.513Z,56.38
2022-10-17T21:45:25.801Z,56.59
2022-10-17T21:48:12.564Z,56.63
2022-10-17T21:50:45.253Z,56.52
2022-10-17T21:53:15.649Z,56.53
2022-10-17T21:55:47.525Z,56.58
2022-10-17T21:58:19.759Z,56.61
2022-10-17T22:00:51.641Z,56.68
2022-10-17T22:03:23.722Z,56.68
2022-10-17T22:06:07.129Z,56.53
2022-10-17T22:08:48.822Z,56.75
2022-10-17T22:11:20.311Z,56.68
2022-10-17T22:13:56.160Z,56.68
2022-10-17T22:16:28.839Z,56.66
2022-10-17T22:19:05.842Z,56.47
2022-10-17T22:21:39.377Z,56.46
2022-10-17T22:24:14.362Z,56.62
2022-10-17T22:26:48.570Z,56.38
2022-10-17T22:29:21.034Z,56.58
2022-10-17T22:31:52.948Z,56.37
2022-10-17T22:34:24.873Z,56.37
2022-10-17T22:36:55.299Z,56.25
2022-10-17T22:39:27.227Z,56.28
2022-10-17T22:41:58.002Z,56.43
2022-10-17T22:44:30.009Z,56.44
2022-10-17T22:47:00.402Z,56.24
2022-10-17T22:49:33.257Z,56.28
2022-10-17T22:52:05.322Z,56.38
2022-10-17T22:54:37.238Z,56.34
2022-10-17T22:57:09.236Z,56.31
2022-10-17T22:59:39.564Z,56.23
2022-10-17T23:02:11.451Z,56.15
2022-10-17T23:04:42.736Z,56.19
2022-10-17T23:07:14.642Z,56.29
2022-10-17T23:09:44.909Z,56.31
2022-10-17T23:12:17.092Z,56.37
2022-10-17T23:14:48.938Z,56.36
2022-10-17T23:17:20.763Z,56.30
2022-10-17T23:19:53.012Z,56.44
2022-10-17T23:22:27.752Z,56.53
2022-10-17T23:24:59.846Z,56.62
2022-10-17T23:30:09.191Z,56.95
2022-10-17T23:32:41.161Z,56.80
2022-10-17T23:35:14.403Z,56.96
2022-10-17T23:37:46.913Z,57.03
2022-10-17T23:40:19.022Z,56.98
2022-10-17T23:42:51.021Z,57.09
2022-10-17T23:45:23.295Z,57.15
2022-10-17T23:47:55.173Z,57.26
2022-10-17T23:50:25.549Z,57.32
2022-10-17T23:52:57.494Z,57.38
2022-10-17T23:55:29.408Z,57.32
2022-10-17T23:58:01.776Z,57.46
